Time;durP1;ratioP1;P1;durP2;ratioP2;P2;SDS_P1;SDS_P2;PMS_P1;PMS_P2;Temp;Humidity;BMP_temperature;BMP_pressure;BME280_temperature;BME280_humidity;BME280_pressure;Samples;Min_cycle;Max_cycle;Signal;HPM_P1;HPM_P2
2021/12/10 00:00:50;;;;;;;46.95;28.30;;;2.80;83.70;;;-151.14;100.00;62537.16;4054057;34;20005;-84
2021/12/10 00:03:25;;;;;;;42.67;26.85;;;2.80;83.60;;;-151.14;100.00;62537.16;4052667;34;19998;-84
2021/12/10 00:06:04;;;;;;;41.47;26.48;;;2.80;83.50;;;-151.14;100.00;62537.16;4030510;34;20099;-86
2021/12/10 00:08:33;;;;;;;42.00;26.80;;;2.80;83.50;;;-151.14;100.00;62537.16;4011048;34;20232;-84
2021/12/10 00:11:02;;;;;;;38.22;24.92;;;2.80;83.80;;;-151.14;100.00;62537.16;4009301;34;20260;-86
2021/12/10 00:13:28;;;;;;;39.10;23.98;;;2.80;83.60;;;-151.14;100.00;62537.16;4030744;34;20249;-85
2021/12/10 00:15:55;;;;;;;38.92;24.70;;;2.80;83.50;;;-151.14;100.00;62537.16;4030005;34;20254;-86
2021/12/10 00:18:30;;;;;;;42.22;25.90;;;2.80;83.60;;;-151.14;100.00;62537.16;4030550;34;20001;-85
2021/12/10 00:20:58;;;;;;;35.38;23.20;;;2.80;83.60;;;-151.14;100.00;62537.16;4054153;34;20085;-84
2021/12/10 00:23:27;;;;;;;40.33;23.98;;;2.80;83.50;;;-151.14;100.00;62537.16;4052129;34;20148;-85
2021/12/10 00:25:53;;;;;;;37.67;22.70;;;2.80;83.60;;;-151.14;100.00;62537.16;4005409;34;20299;-84
2021/12/10 00:28:50;;;;;;;38.17;23.65;;;2.80;83.70;;;-151.14;100.00;62537.16;4004746;34;20021;-84
2021/12/10 00:34:10;;;;;;;;;;;2.80;83.60;;;-151.14;100.00;62537.16;4030246;34;20014;-84
2021/12/10 00:36:37;;;;;;;36.88;22.90;;;2.80;83.50;;;-151.14;100.00;62537.16;4068456;34;20226;-84
2021/12/10 00:39:28;;;;;;;36.00;22.52;;;2.80;83.50;;;-151.14;100.00;62537.16;3983875;34;20250;-86
2021/12/10 00:41:57;;;;;;;39.10;22.60;;;2.80;83.70;;;-151.14;100.00;62537.16;4025629;34;20128;-84
2021/12/10 00:44:23;;;;;;;35.55;21.85;;;2.80;83.70;;;-151.14;100.00;62537.16;4004890;34;20005;-84
2021/12/10 00:46:50;;;;;;;34.47;20.63;;;2.80;83.60;;;-151.14;100.00;62537.16;4004283;34;19998;-85
2021/12/10 00:49:16;;;;;;;36.92;22.33;;;2.80;83.50;;;-151.14;100.00;62537.16;4025497;35;20249;-85
2021/12/10 00:51:43;;;;;;;36.28;22.15;;;2.80;83.60;;;-151.14;100.00;62537.16;4004292;34;20050;-84
2021/12/10 00:54:10;;;;;;;32.97;19.88;;;2.80;83.80;;;-151.14;100.00;62537.16;4025781;34;20056;-84
2021/12/10 01:02:25;;;;;;;32.03;20.05;;;2.80;84.60;;;-151.14;100.00;62537.16;4055623;29;20030;-85
2021/12/10 01:04:56;;;;;;;31.38;19.33;;;2.80;83.60;;;-151.14;100.00;62537.16;3964265;34;19998;-85
2021/12/10 01:07:32;;;;;;;32.92;19.90;;;2.80;83.80;;;-151.14;100.00;62537.16;3965060;34;20534;-84
2021/12/10 01:10:27;;;;;;;29.88;19.05;;;2.80;83.60;;;-151.14;100.00;62537.16;4024794;34;20028;-84
2021/12/10 01:12:57;;;;;;;30.38;18.75;;;2.80;83.60;;;-151.14;100.00;62537.16;3988788;35;20055;-84
2021/12/10 01:24:08;;;;;;;28.80;18.58;;;2.80;83.60;;;-151.14;100.00;62537.16;3980726;35;20210;-86
2021/12/10 01:29:16;;;;;;;28.80;16.67;;;2.80;83.60;;;-151.14;100.00;62537.16;3969318;35;20062;-85
2021/12/10 01:31:44;;;;;;;23.70;15.52;;;2.80;83.70;;;-151.14;100.00;62537.16;3948196;35;20155;-85
2021/12/10 01:34:13;;;;;;;30.70;17.40;;;2.80;83.60;;;-151.14;100.00;62537.16;3990326;35;20330;-85
2021/12/10 01:36:40;;;;;;;26.55;16.35;;;2.80;83.50;;;-151.14;100.00;62537.16;3914526;35;19991;-85
2021/12/10 01:39:14;;;;;;;24.90;16.83;;;2.80;83.60;;;-151.14;100.00;62537.16;3952207;35;19998;-85
2021/12/10 01:41:42;;;;;;;27.42;17.02;;;2.80;83.70;;;-151.14;100.00;62537.16;3952493;35;19992;-85
2021/12/10 01:44:16;;;;;;;25.00;16.75;;;2.80;83.80;;;-151.14;100.00;62537.16;3997496;35;20217;-85
2021/12/10 01:46:45;;;;;;;27.10;15.82;;;2.80;83.60;;;-151.14;100.00;62537.16;3959388;35;19990;-85
2021/12/10 01:49:12;;;;;;;25.10;15.38;;;2.80;83.60;;;-151.14;100.00;62537.16;3932021;35;20010;-85
2021/12/10 01:51:40;;;;;;;26.33;15.27;;;2.80;83.80;;;-151.14;100.00;62537.16;3948078;35;20030;-84
2021/12/10 01:54:21;;;;;;;22.00;14.85;;;2.80;83.80;;;-151.14;100.00;62537.16;3991201;35;20266;-84
2021/12/10 01:56:49;;;;;;;25.80;15.85;;;2.80;83.80;;;-151.14;100.00;62537.16;3949100;35;20004;-85
2021/12/10 01:59:18;;;;;;;24.52;15.48;;;2.80;83.90;;;-151.14;100.00;62537.16;3970185;35;20003;-87
2021/12/10 02:01:52;;;;;;;24.65;15.70;;;2.80;83.80;;;-151.14;100.00;62537.16;3970680;35;20056;-85
2021/12/10 02:04:23;;;;;;;24.88;14.82;;;2.80;84.00;;;-151.14;100.00;62537.16;3972355;35;20084;-85
2021/12/10 02:06:50;;;;;;;24.23;14.38;;;2.80;83.90;;;-151.14;100.00;62537.16;3951504;35;20320;-85
2021/12/10 02:09:17;;;;;;;23.98;14.85;;;2.80;83.90;;;-151.14;100.00;62537.16;3993320;35;19996;-86
2021/12/10 02:11:44;;;;;;;24.33;14.98;;;2.80;83.80;;;-151.14;100.00;62537.16;3992656;35;20282;-85
2021/12/10 02:14:10;;;;;;;22.83;13.73;;;2.80;83.90;;;-151.14;100.00;62537.16;3951778;35;20065;-85
2021/12/10 02:16:37;;;;;;;20.15;12.90;;;2.80;84.00;;;-151.14;100.00;62537.16;3931092;35;20282;-86
2021/12/10 02:19:05;;;;;;;21.77;13.95;;;2.80;83.90;;;-151.14;100.00;62537.16;3931333;35;20000;-85
2021/12/10 02:21:34;;;;;;;21.02;12.52;;;2.80;83.90;;;-151.14;100.00;62537.16;3971562;35;20071;-84
2021/12/10 02:24:01;;;;;;;21.23;14.02;;;2.80;84.00;;;-151.14;100.00;62537.16;3950457;35;20284;-85
2021/12/10 02:26:35;;;;;;;21.08;13.50;;;2.80;84.00;;;-151.14;100.00;62537.16;3951519;35;20344;-84
2021/12/10 02:29:03;;;;;;;21.65;14.48;;;2.80;83.80;;;-151.14;100.00;62537.16;3911621;35;20023;-84
2021/12/10 02:31:30;;;;;;;19.67;13.35;;;2.80;83.90;;;-151.14;100.00;62537.16;3910507;35;20232;-85
2021/12/10 02:33:56;;;;;;;19.42;12.57;;;2.80;83.80;;;-151.14;100.00;62537.16;3911243;35;20071;-85
2021/12/10 02:36:26;;;;;;;21.15;13.23;;;2.80;83.80;;;-151.14;100.00;62537.16;3910856;35;20028;-85
2021/12/10 02:38:53;;;;;;;19.83;13.15;;;2.80;83.80;;;-151.14;100.00;62537.16;3891220;35;19984;-84
2021/12/10 02:41:26;;;;;;;22.02;13.60;;;2.80;83.80;;;-151.14;100.00;62537.16;3930588;35;19992;-86
2021/12/10 02:43:53;;;;;;;20.25;13.65;;;2.80;83.60;;;-151.14;100.00;62537.16;3950690;35;20012;-86
2021/12/10 02:46:19;;;;;;;19.33;12.68;;;2.80;83.60;;;-151.14;100.00;62537.16;3951080;35;20286;-86
2021/12/10 02:48:46;;;;;;;19.55;12.95;;;2.80;83.60;;;-151.14;100.00;62537.16;3952383;35;20088;-86
2021/12/10 02:51:12;;;;;;;18.55;11.70;;;2.80;83.60;;;-151.14;100.00;62537.16;3975713;35;20111;-86
2021/12/10 02:53:43;;;;;;;18.80;11.98;;;2.80;83.80;;;-151.14;100.00;62537.16;3935141;35;20096;-86
2021/12/10 02:56:12;;;;;;;19.65;12.05;;;2.80;83.70;;;-151.14;100.00;62537.16;3936235;35;20203;-85
2021/12/10 02:58:38;;;;;;;18.33;12.38;;;2.80;83.80;;;-151.14;100.00;62537.16;3939944;35;20344;-85
2021/12/10 03:01:28;;;;;;;18.88;13.35;;;2.80;83.80;;;-151.14;100.00;62537.16;3919274;35;20066;-85
2021/12/10 03:03:55;;;;;;;17.65;11.60;;;2.80;83.70;;;-151.14;100.00;62537.16;3945286;35;20062;-85
2021/12/10 03:06:21;;;;;;;18.20;11.10;;;2.80;83.60;;;-151.14;100.00;62537.16;3939490;35;20179;-85
2021/12/10 03:08:50;;;;;;;19.67;11.20;;;2.80;83.60;;;-151.14;100.00;62537.16;3960122;35;20017;-85
2021/12/10 03:11:24;;;;;;;18.58;12.57;;;2.80;83.70;;;-151.14;100.00;62537.16;4001508;35;20372;-86
2021/12/10 03:13:50;;;;;;;19.02;11.70;;;2.80;83.60;;;-151.14;100.00;62537.16;3958153;35;20118;-85
2021/12/10 03:16:17;;;;;;;19.63;12.18;;;2.80;83.60;;;-151.14;100.00;62537.16;3979326;35;20017;-85
2021/12/10 03:18:43;;;;;;;19.13;12.43;;;2.80;83.60;;;-151.14;100.00;62537.16;3959663;35;20257;-86
2021/12/10 03:21:11;;;;;;;18.60;11.63;;;2.80;83.80;;;-151.14;100.00;62537.16;4001015;35;20383;-86
2021/12/10 03:23:42;;;;;;;18.38;11.27;;;2.80;83.60;;;-151.14;100.00;62537.16;3980440;35;20328;-87
2021/12/10 03:26:11;;;;;;;17.48;12.13;;;2.80;83.80;;;-151.14;100.00;62537.16;4001912;35;19991;-86
2021/12/10 03:28:42;;;;;;;17.45;11.30;;;2.80;83.90;;;-151.14;100.00;62537.16;3980772;35;19995;-84
2021/12/10 03:31:09;;;;;;;15.77;10.60;;;2.80;83.80;;;-151.14;100.00;62537.16;3951050;35;20205;-84
2021/12/10 03:33:36;;;;;;;16.58;10.75;;;2.80;83.60;;;-151.14;100.00;62537.16;3951230;35;20003;-85
2021/12/10 03:36:03;;;;;;;16.45;10.98;;;2.80;83.80;;;-151.14;100.00;62537.16;3950827;35;20145;-85
2021/12/10 03:38:30;;;;;;;18.10;11.43;;;2.80;83.80;;;-151.14;100.00;62537.16;3951074;35;20053;-85
2021/12/10 03:40:59;;;;;;;16.00;9.95;;;2.80;83.70;;;-151.14;100.00;62537.16;3930793;35;19991;-85
2021/12/10 03:43:26;;;;;;;16.75;10.25;;;2.80;83.90;;;-151.14;100.00;62537.16;3950661;35;20003;-84
2021/12/10 03:45:55;;;;;;;17.88;10.60;;;2.80;84.60;;;-151.14;100.00;62537.16;3930705;35;20113;-85
2021/12/10 03:48:37;;;;;;;15.80;10.07;;;2.80;83.80;;;-151.14;100.00;62537.16;3930752;35;20027;-84
2021/12/10 03:51:07;;;;;;;16.77;10.10;;;2.80;83.80;;;-151.14;100.00;62537.16;3969189;35;20120;-85
2021/12/10 03:53:33;;;;;;;17.23;10.52;;;2.80;83.80;;;-151.14;100.00;62537.16;3951030;35;20043;-86
2021/12/10 03:56:11;;;;;;;16.17;10.15;;;2.80;83.80;;;-151.14;100.00;62537.16;3930680;35;19996;-85
2021/12/10 03:58:39;;;;;;;16.15;10.32;;;2.80;83.80;;;-151.14;100.00;62537.16;3949411;35;20189;-85
2021/12/10 04:01:07;;;;;;;18.00;11.55;;;2.80;83.80;;;-151.14;100.00;62537.16;3930039;35;19991;-86
2021/12/10 04:03:34;;;;;;;15.45;10.38;;;2.80;83.80;;;-151.14;100.00;62537.16;3951320;35;20534;-85
2021/12/10 04:06:00;;;;;;;15.88;10.13;;;2.80;83.80;;;-151.14;100.00;62537.16;3971433;35;20254;-85
2021/12/10 04:08:27;;;;;;;15.15;9.95;;;2.70;83.90;;;-151.14;100.00;62537.16;3950820;35;19996;-85
2021/12/10 04:10:54;;;;;;;15.25;9.55;;;2.80;83.80;;;-151.14;100.00;62537.16;3930393;35;20576;-85
2021/12/10 04:13:21;;;;;;;16.60;9.95;;;2.80;83.70;;;-151.14;100.00;62537.16;3971288;35;20063;-85
2021/12/10 04:15:48;;;;;;;15.88;10.02;;;2.80;83.80;;;-151.14;100.00;62537.16;3943851;35;20302;-85
2021/12/10 04:18:15;;;;;;;13.30;9.32;;;2.80;83.70;;;-151.14;100.00;62537.16;3914025;35;20011;-87
2021/12/10 04:20:42;;;;;;;14.93;9.30;;;2.70;83.80;;;-151.14;100.00;62537.16;3933686;35;20037;-85
2021/12/10 04:23:15;;;;;;;15.07;9.70;;;2.80;83.60;;;-151.14;100.00;62537.16;3933837;35;20171;-85
2021/12/10 04:25:42;;;;;;;17.52;10.18;;;2.80;83.80;;;-151.14;100.00;62537.16;3934433;35;20207;-86
2021/12/10 04:28:13;;;;;;;16.48;10.48;;;2.70;83.70;;;-151.14;100.00;62537.16;3934003;35;20083;-86
2021/12/10 04:30:42;;;;;;;15.65;9.88;;;2.70;83.80;;;-151.14;100.00;62537.16;3933928;35;20220;-86
2021/12/10 04:33:12;;;;;;;14.57;9.00;;;2.80;83.80;;;-151.14;100.00;62537.16;3915242;35;20035;-85
2021/12/10 04:35:39;;;;;;;13.90;9.00;;;2.70;84.00;;;-151.14;100.00;62537.16;3934406;35;19991;-85
2021/12/10 04:38:06;;;;;;;15.98;9.77;;;2.80;83.80;;;-151.14;100.00;62537.16;3934092;35;20011;-85
2021/12/10 04:40:32;;;;;;;14.43;9.15;;;2.80;83.70;;;-151.14;100.00;62537.16;3933202;35;20070;-86
2021/12/10 04:42:59;;;;;;;16.10;9.95;;;2.70;83.90;;;-151.14;100.00;62537.16;3913849;35;20289;-86
2021/12/10 04:45:25;;;;;;;16.30;9.45;;;2.80;83.90;;;-151.14;100.00;62537.16;3914022;35;20005;-86
2021/12/10 04:47:52;;;;;;;14.90;8.82;;;2.80;83.70;;;-151.14;100.00;62537.16;3933841;35;20509;-86
2021/12/10 04:50:20;;;;;;;16.58;10.57;;;2.70;83.80;;;-151.14;100.00;62537.16;3933726;35;20244;-87
2021/12/10 04:52:46;;;;;;;14.90;9.20;;;2.80;83.80;;;-151.14;100.00;62537.16;3933540;35;20121;-86
2021/12/10 04:55:14;;;;;;;15.60;10.23;;;2.80;83.70;;;-151.14;100.00;62537.16;3913552;35;20136;-87
2021/12/10 04:57:41;;;;;;;15.73;10.02;;;2.80;83.70;;;-151.14;100.00;62537.16;3933818;35;20014;-85
2021/12/10 05:00:23;;;;;;;14.07;8.77;;;2.80;83.70;;;-151.14;100.00;62537.16;3933570;35;19984;-85
2021/12/10 05:02:50;;;;;;;16.92;10.65;;;2.70;83.70;;;-151.14;100.00;62537.16;3949559;35;19995;-84
2021/12/10 05:05:16;;;;;;;18.02;10.23;;;2.80;83.60;;;-151.14;100.00;62537.16;3909383;35;20092;-84
2021/12/10 05:07:42;;;;;;;17.67;10.52;;;2.80;83.80;;;-151.14;100.00;62537.16;3949874;35;20224;-85
2021/12/10 05:10:11;;;;;;;16.38;10.23;;;2.70;83.80;;;-151.14;100.00;62537.16;3929038;35;20341;-85
2021/12/10 05:12:38;;;;;;;16.05;9.73;;;2.70;83.50;;;-151.14;100.00;62537.16;3929388;35;20049;-85
2021/12/10 05:15:07;;;;;;;15.77;10.02;;;2.80;83.80;;;-151.14;100.00;62537.16;3934957;35;1269824;-85
2021/12/10 05:17:34;;;;;;;15.95;10.05;;;2.70;83.70;;;-151.14;100.00;62537.16;3930742;35;20222;-86
2021/12/10 05:20:15;;;;;;;13.18;9.27;;;2.70;83.80;;;-151.14;100.00;62537.16;3929909;35;20169;-86
2021/12/10 05:22:45;;;;;;;14.65;9.13;;;2.70;83.80;;;-151.14;100.00;62537.16;3950932;35;20067;-87
2021/12/10 05:25:11;;;;;;;14.75;9.38;;;2.70;83.70;;;-151.14;100.00;62537.16;3910443;35;20146;-87
2021/12/10 05:27:38;;;;;;;15.25;10.50;;;2.70;83.70;;;-151.14;100.00;62537.16;3929844;35;20000;-87
2021/12/10 05:30:07;;;;;;;15.63;9.77;;;2.70;83.60;;;-151.14;100.00;62537.16;3949736;35;19999;-86
2021/12/10 05:32:34;;;;;;;15.23;9.68;;;2.70;83.70;;;-151.14;100.00;62537.16;3910808;35;20451;-84
2021/12/10 05:35:00;;;;;;;15.68;9.30;;;2.70;83.60;;;-151.14;100.00;62537.16;3909917;35;20243;-85
2021/12/10 05:37:27;;;;;;;14.60;10.20;;;2.70;83.80;;;-151.14;100.00;62537.16;3952105;35;20012;-86
2021/12/10 05:39:53;;;;;;;15.52;10.30;;;2.70;83.70;;;-151.14;100.00;62537.16;3911818;35;19991;-85
2021/12/10 05:42:20;;;;;;;15.50;10.05;;;2.70;83.70;;;-151.14;100.00;62537.16;3936643;35;20421;-86
2021/12/10 05:44:46;;;;;;;15.90;10.05;;;2.70;83.60;;;-151.14;100.00;62537.16;3936101;35;20193;-85
2021/12/10 05:47:12;;;;;;;16.65;9.90;;;2.80;83.70;;;-151.14;100.00;62537.16;3956437;35;20188;-85
2021/12/10 05:49:39;;;;;;;14.68;9.43;;;2.70;83.60;;;-151.14;100.00;62537.16;3936140;35;20007;-86
2021/12/10 05:52:06;;;;;;;15.52;10.48;;;2.70;83.60;;;-151.14;100.00;62537.16;3936114;35;20073;-86
2021/12/10 05:54:34;;;;;;;15.50;9.68;;;2.80;83.50;;;-151.14;100.00;62537.16;3936510;35;20015;-86
2021/12/10 05:57:01;;;;;;;14.82;10.27;;;2.80;83.70;;;-151.14;100.00;62537.16;3936559;35;20082;-86
2021/12/10 05:59:27;;;;;;;15.35;9.90;;;2.70;83.70;;;-151.14;100.00;62537.16;3916226;35;20260;-85
2021/12/10 06:01:53;;;;;;;17.20;10.93;;;2.70;83.80;;;-151.14;100.00;62537.16;3935939;35;20156;-85
2021/12/10 06:04:23;;;;;;;13.45;9.55;;;2.70;83.80;;;-151.14;100.00;62537.16;3956225;35;20186;-84
2021/12/10 06:06:50;;;;;;;15.95;10.50;;;2.80;83.60;;;-151.14;100.00;62537.16;3912805;35;20170;-85
2021/12/10 06:09:16;;;;;;;13.63;9.50;;;2.70;83.80;;;-151.14;100.00;62537.16;3972567;35;20003;-86
2021/12/10 06:11:42;;;;;;;16.58;11.30;;;2.80;83.90;;;-151.14;100.00;62537.16;3931511;35;20063;-86
2021/12/10 06:14:09;;;;;;;14.80;10.07;;;2.70;83.80;;;-151.14;100.00;62537.16;3891657;35;20101;-86
2021/12/10 06:16:36;;;;;;;17.92;11.35;;;2.70;83.60;;;-151.14;100.00;62537.16;3951775;35;20039;-86
2021/12/10 06:19:04;;;;;;;17.02;10.57;;;2.70;83.60;;;-151.14;100.00;62537.16;3952024;35;20047;-85
2021/12/10 06:21:32;;;;;;;16.70;11.13;;;2.70;83.60;;;-151.14;100.00;62537.16;3911011;35;19995;-86
2021/12/10 06:23:59;;;;;;;21.15;12.30;;;2.80;83.80;;;-151.14;100.00;62537.16;3917198;35;20082;-86
2021/12/10 06:26:26;;;;;;;18.63;12.15;;;2.80;83.60;;;-151.14;100.00;62537.16;3956202;35;20218;-86
2021/12/10 06:28:52;;;;;;;18.02;11.52;;;2.70;83.70;;;-151.14;100.00;62537.16;3934992;35;20208;-85
2021/12/10 06:31:23;;;;;;;16.67;11.25;;;2.80;83.70;;;-151.14;100.00;62537.16;3954924;35;20003;-85
2021/12/10 06:33:50;;;;;;;17.63;11.68;;;2.80;83.80;;;-151.14;100.00;62537.16;3975297;35;20373;-86
2021/12/10 06:36:17;;;;;;;20.25;12.30;;;2.70;83.60;;;-151.14;100.00;62537.16;3934152;35;19999;-86
2021/12/10 06:38:44;;;;;;;17.23;11.32;;;2.70;83.50;;;-151.14;100.00;62537.16;3951088;35;20157;-86
2021/12/10 06:41:11;;;;;;;16.65;11.40;;;2.70;83.70;;;-151.14;100.00;62537.16;3909887;35;20174;-86
2021/12/10 06:43:37;;;;;;;19.05;11.25;;;2.70;83.70;;;-151.14;100.00;62537.16;3930278;35;20007;-86
2021/12/10 06:46:06;;;;;;;20.02;12.68;;;2.80;84.00;;;-151.14;100.00;62537.16;3910099;35;20025;-86
2021/12/10 06:48:32;;;;;;;19.52;11.57;;;2.80;83.70;;;-151.14;100.00;62537.16;3910434;35;20004;-86
2021/12/10 06:51:05;;;;;;;19.90;12.57;;;2.70;83.70;;;-151.14;100.00;62537.16;3949819;35;20030;-86
2021/12/10 06:53:31;;;;;;;21.65;13.85;;;2.80;83.80;;;-151.14;100.00;62537.16;3912210;35;20071;-86
2021/12/10 06:55:59;;;;;;;20.67;13.27;;;2.70;83.80;;;-151.14;100.00;62537.16;3929949;35;20053;-87
2021/12/10 06:58:27;;;;;;;17.55;12.10;;;2.80;83.80;;;-151.14;100.00;62537.16;3910541;35;20542;-87
2021/12/10 07:01:02;;;;;;;19.55;12.85;;;2.80;83.80;;;-151.14;100.00;62537.16;3909535;35;19979;-87
2021/12/10 07:03:29;;;;;;;19.95;12.07;;;2.80;83.70;;;-151.14;100.00;62537.16;3948069;35;20029;-86
2021/12/10 07:05:57;;;;;;;19.75;12.95;;;2.70;83.70;;;-151.14;100.00;62537.16;3949893;35;20336;-86
2021/12/10 07:08:25;;;;;;;20.15;12.63;;;2.70;83.70;;;-151.14;100.00;62537.16;3991465;35;20065;-86
2021/12/10 07:10:51;;;;;;;19.77;13.40;;;2.80;83.70;;;-151.14;100.00;62537.16;3909426;35;20389;-86
2021/12/10 07:13:17;;;;;;;19.60;12.23;;;2.80;83.70;;;-151.14;100.00;62537.16;3950401;35;20127;-86
2021/12/10 07:15:56;;;;;;;20.67;13.50;;;2.80;83.70;;;-151.14;100.00;62537.16;3950191;35;20108;-85
2021/12/10 07:18:23;;;;;;;20.23;12.80;;;2.80;83.60;;;-151.14;100.00;62537.16;3975680;35;20255;-85
2021/12/10 07:20:52;;;;;;;19.98;12.40;;;2.80;83.80;;;-151.14;100.00;62537.16;4009502;35;20308;-85
2021/12/10 07:23:20;;;;;;;24.42;13.40;;;2.80;83.70;;;-151.14;100.00;62537.16;4021476;35;20074;-84
2021/12/10 07:25:47;;;;;;;19.63;12.38;;;2.80;83.60;;;-151.14;100.00;62537.16;4021959;34;19995;-85
2021/12/10 07:28:14;;;;;;;17.15;11.75;;;2.80;83.60;;;-151.14;100.00;62537.16;3984684;34;20136;-85
2021/12/10 07:30:41;;;;;;;18.55;12.25;;;2.80;83.60;;;-151.14;100.00;62537.16;3963993;34;20242;-85
2021/12/10 07:36:06;;;;;;;20.73;13.32;;;2.80;83.60;;;-151.14;100.00;62537.16;3964959;35;20055;-85
2021/12/10 07:38:33;;;;;;;20.23;12.93;;;2.80;83.60;;;-151.14;100.00;62537.16;3930079;35;20008;-86
2021/12/10 07:41:00;;;;;;;19.75;13.07;;;2.80;83.60;;;-151.14;100.00;62537.16;3890449;35;20124;-87
2021/12/10 07:43:26;;;;;;;19.33;12.68;;;2.80;84.30;;;-151.14;100.00;62537.16;3922453;35;20012;-85
2021/12/10 07:45:53;;;;;;;21.70;13.85;;;2.80;83.40;;;-151.14;100.00;62537.16;3930296;35;20101;-85
2021/12/10 07:48:22;;;;;;;21.00;14.02;;;2.80;83.50;;;-151.14;100.00;62537.16;3917985;35;19999;-85
2021/12/10 07:51:00;;;;;;;21.20;13.88;;;2.80;83.40;;;-151.14;100.00;62537.16;3955148;35;20043;-85
2021/12/10 07:53:30;;;;;;;20.88;13.65;;;2.80;83.30;;;-151.14;100.00;62537.16;3930929;35;20544;-85
2021/12/10 07:55:58;;;;;;;19.33;12.85;;;2.80;83.40;;;-151.14;100.00;62537.16;3937774;35;20318;-85
2021/12/10 07:58:25;;;;;;;20.92;13.48;;;2.80;83.40;;;-151.14;100.00;62537.16;3975826;35;20274;-85
2021/12/10 08:00:51;;;;;;;18.80;12.88;;;2.80;83.50;;;-151.14;100.00;62537.16;3954532;35;19999;-85
2021/12/10 08:03:18;;;;;;;18.75;12.60;;;2.80;83.40;;;-151.14;100.00;62537.16;3974971;35;20169;-86
2021/12/10 08:05:45;;;;;;;21.42;13.18;;;2.80;83.30;;;-151.14;100.00;62537.16;3954320;35;19997;-86
2021/12/10 08:08:12;;;;;;;22.40;14.40;;;2.80;83.30;;;-151.14;100.00;62537.16;3954891;35;20225;-85
2021/12/10 08:10:39;;;;;;;19.58;13.25;;;2.80;83.30;;;-151.14;100.00;62537.16;3975088;35;19996;-86
2021/12/10 08:13:06;;;;;;;22.65;14.23;;;2.80;83.30;;;-151.14;100.00;62537.16;3975571;35;20015;-86
2021/12/10 08:15:33;;;;;;;22.65;13.27;;;2.80;83.40;;;-151.14;100.00;62537.16;3971596;35;19995;-85
2021/12/10 08:17:59;;;;;;;21.30;13.93;;;2.80;83.30;;;-151.14;100.00;62537.16;3950277;35;20051;-85
2021/12/10 08:20:27;;;;;;;20.67;14.02;;;2.80;83.30;;;-151.14;100.00;62537.16;3970604;35;20007;-85
2021/12/10 08:22:53;;;;;;;21.35;13.73;;;2.80;83.20;;;-151.14;100.00;62537.16;3929841;35;20019;-85
2021/12/10 08:25:21;;;;;;;19.20;12.88;;;2.80;83.20;;;-151.14;100.00;62537.16;3909644;35;20003;-85
2021/12/10 08:27:48;;;;;;;20.00;12.85;;;2.80;83.30;;;-151.14;100.00;62537.16;3949999;35;20037;-85
2021/12/10 08:30:17;;;;;;;19.38;13.25;;;2.80;83.30;;;-151.14;100.00;62537.16;3909746;35;20303;-85
2021/12/10 08:32:45;;;;;;;21.05;14.07;;;2.80;83.20;;;-151.14;100.00;62537.16;3930265;35;20094;-87
2021/12/10 08:35:17;;;;;;;22.02;13.70;;;2.80;83.10;;;-151.14;100.00;62537.16;3949525;35;19995;-86
2021/12/10 08:37:44;;;;;;;22.65;14.57;;;2.80;83.20;;;-151.14;100.00;62537.16;3951014;35;20007;-86
2021/12/10 08:40:16;;;;;;;22.58;14.52;;;2.80;83.20;;;-151.14;100.00;62537.16;3929401;35;19991;-86
2021/12/10 08:42:43;;;;;;;18.45;13.35;;;2.80;83.10;;;-151.14;100.00;62537.16;3951613;35;20087;-85
2021/12/10 08:45:10;;;;;;;21.85;13.63;;;2.80;83.00;;;-151.14;100.00;62537.16;3909407;35;20015;-85
2021/12/10 08:47:36;;;;;;;20.25;13.07;;;2.80;83.00;;;-151.14;100.00;62537.16;3925502;35;20076;-86
2021/12/10 08:50:05;;;;;;;20.92;13.30;;;2.80;83.00;;;-151.14;100.00;62537.16;3945637;35;20482;-86
2021/12/10 08:52:32;;;;;;;20.38;13.05;;;2.80;83.00;;;-151.14;100.00;62537.16;3925395;35;20518;-86
2021/12/10 08:54:58;;;;;;;20.00;12.75;;;2.80;83.00;;;-151.14;100.00;62537.16;3937484;35;19992;-86
2021/12/10 08:57:26;;;;;;;23.10;13.55;;;2.80;82.90;;;-151.14;100.00;62537.16;3945983;35;20000;-86
2021/12/10 08:59:53;;;;;;;20.30;13.00;;;2.80;83.00;;;-151.14;100.00;62537.16;3923037;35;20015;-86
2021/12/10 09:02:20;;;;;;;23.38;14.20;;;2.80;83.00;;;-151.14;100.00;62537.16;3984702;35;20067;-86
2021/12/10 09:04:46;;;;;;;21.70;13.60;;;2.80;82.90;;;-151.14;100.00;62537.16;3933797;35;20206;-86
2021/12/10 09:07:15;;;;;;;20.30;13.25;;;2.80;83.10;;;-151.14;100.00;62537.16;3934129;35;19998;-86
2021/12/10 09:09:44;;;;;;;20.95;13.65;;;2.80;83.00;;;-151.14;100.00;62537.16;3954913;35;20010;-87
2021/12/10 09:12:17;;;;;;;23.70;14.73;;;2.80;83.00;;;-151.14;100.00;62537.16;3974228;35;20048;-84
2021/12/10 09:14:48;;;;;;;22.35;14.77;;;2.80;83.00;;;-151.14;100.00;62537.16;3955879;35;19994;-84
2021/12/10 09:17:21;;;;;;;22.48;14.80;;;2.80;83.00;;;-151.14;100.00;62537.16;3950780;35;20202;-85
2021/12/10 09:19:48;;;;;;;19.60;12.73;;;2.80;82.90;;;-151.14;100.00;62537.16;3971856;35;20448;-86
2021/12/10 09:22:14;;;;;;;23.63;14.48;;;2.80;82.90;;;-151.14;100.00;62537.16;3949954;35;20234;-86
2021/12/10 09:24:41;;;;;;;23.15;13.88;;;2.80;82.90;;;-151.14;100.00;62537.16;3972797;35;19995;-85
2021/12/10 09:27:08;;;;;;;24.23;13.88;;;2.80;82.90;;;-151.14;100.00;62537.16;3992613;35;20036;-85
2021/12/10 09:29:39;;;;;;;22.20;14.45;;;2.80;83.00;;;-151.14;100.00;62537.16;3940580;35;20002;-85
2021/12/10 09:32:09;;;;;;;21.55;14.38;;;2.80;83.00;;;-151.14;100.00;62537.16;3970987;35;20055;-85
2021/12/10 09:34:36;;;;;;;23.17;14.60;;;2.80;83.00;;;-151.14;100.00;62537.16;3946004;35;20069;-84
2021/12/10 09:37:04;;;;;;;21.63;14.43;;;2.80;82.90;;;-151.14;100.00;62537.16;3945657;35;20000;-85
2021/12/10 09:39:31;;;;;;;19.92;13.40;;;2.80;82.90;;;-151.14;100.00;62537.16;3925228;35;20173;-84
2021/12/10 09:41:59;;;;;;;19.88;13.45;;;2.80;82.80;;;-151.14;100.00;62537.16;3939179;35;19996;-85
2021/12/10 09:44:26;;;;;;;21.95;14.43;;;2.80;82.80;;;-151.14;100.00;62537.16;3906630;35;20097;-83
2021/12/10 09:46:52;;;;;;;22.10;14.82;;;2.80;82.80;;;-151.14;100.00;62537.16;3925180;35;19992;-84
2021/12/10 09:49:23;;;;;;;21.83;14.68;;;2.80;82.80;;;-151.14;100.00;62537.16;3925208;35;20027;-85
2021/12/10 09:51:55;;;;;;;19.77;13.68;;;2.80;82.70;;;-151.14;100.00;62537.16;3963833;35;20004;-84
2021/12/10 09:54:24;;;;;;;19.40;13.35;;;2.80;82.80;;;-151.14;100.00;62537.16;3951710;35;20201;-85
2021/12/10 09:57:25;;;;;;;20.55;13.65;;;2.80;82.70;;;-151.14;100.00;62537.16;3951224;35;20294;-86
2021/12/10 09:59:53;;;;;;;19.80;14.57;;;2.80;82.70;;;-151.14;100.00;62537.16;3936761;35;20066;-86
2021/12/10 10:02:21;;;;;;;21.63;14.50;;;2.80;82.70;;;-151.14;100.00;62537.16;3929138;35;20056;-86
2021/12/10 10:04:50;;;;;;;18.52;13.60;;;2.80;82.70;;;-151.14;100.00;62537.16;3949241;35;20315;-84
2021/12/10 10:07:28;;;;;;;19.30;12.68;;;2.80;82.70;;;-151.14;100.00;62537.16;3954384;35;20299;-85
2021/12/10 10:10:04;;;;;;;18.88;12.45;;;2.80;82.80;;;-151.14;100.00;62537.16;3933897;35;20385;-86
2021/12/10 10:12:34;;;;;;;25.02;13.98;;;2.80;82.80;;;-151.14;100.00;62537.16;3939033;35;20102;-84
2021/12/10 10:15:06;;;;;;;21.50;13.25;;;2.80;82.70;;;-151.14;100.00;62537.16;3969604;35;20082;-83
2021/12/10 10:17:32;;;;;;;21.63;13.55;;;2.80;82.70;;;-151.14;100.00;62537.16;3990071;35;20026;-84
2021/12/10 10:19:59;;;;;;;20.08;13.25;;;2.80;82.70;;;-151.14;100.00;62537.16;3949314;35;20156;-84
2021/12/10 10:22:29;;;;;;;20.65;13.38;;;2.80;82.60;;;-151.14;100.00;62537.16;3950831;35;20087;-84
2021/12/10 10:24:55;;;;;;;21.73;13.25;;;2.80;82.50;;;-151.14;100.00;62537.16;3976123;35;20071;-84